Rogiet, United Kingdom
Current Conditions -  °F | °C
As of 10:20 PM on Sunday 23 Nov 2014 (Local Time) from EGGD Reporting Station
Clear Clear  
Wind Chill: 35°   Ceiling: Unl
Heat Index: 39°   Visibility: 6mi
Dew Point: 36°   Wind: 6mph
Humidity: 87%   Direction: 320°NW
Pressure: 30.18"   Gusts: NA
Location:  51.59°N, 2.78°W
Report Text: EGGD 232220Z 32005KT 270V350 CAVOK 04/02 Q1022
Loading
Personal Weather Stations






























Interactive Weather Map New forecast layout! Learn more

10-Day Weather Forecast

Advertisements
Track Severe Weather on mobile